sensor_id;sensor_type;location;lat;lon;timestamp;P1;durP1;ratioP1;P2;durP2;ratioP2
19509;SDS011;9896;42.486;26.506;2022-11-20T00:00:52;14.17;;;7.67;;
19509;SDS011;9896;42.486;26.506;2022-11-20T00:03:18;25.83;;;8.20;;
19509;SDS011;9896;42.486;26.506;2022-11-20T00:05:44;15.60;;;7.67;;
19509;SDS011;9896;42.486;26.506;2022-11-20T00:08:09;18.40;;;7.60;;
19509;SDS011;9896;42.486;26.506;2022-11-20T00:10:36;16.07;;;7.83;;
19509;SDS011;9896;42.486;26.506;2022-11-20T00:13:02;25.07;;;7.60;;
19509;SDS011;9896;42.486;26.506;2022-11-20T00:15:27;16.10;;;7.57;;
19509;SDS011;9896;42.486;26.506;2022-11-20T00:17:53;23.03;;;7.30;;
19509;SDS011;9896;42.486;26.506;2022-11-20T00:20:18;19.20;;;7.53;;
19509;SDS011;9896;42.486;26.506;2022-11-20T00:22:44;16.63;;;5.80;;
19509;SDS011;9896;42.486;26.506;2022-11-20T00:25:09;22.80;;;6.77;;
19509;SDS011;9896;42.486;26.506;2022-11-20T00:27:35;19.93;;;7.27;;
19509;SDS011;9896;42.486;26.506;2022-11-20T00:30:00;15.00;;;5.33;;
19509;SDS011;9896;42.486;26.506;2022-11-20T00:32:26;10.63;;;4.60;;
19509;SDS011;9896;42.486;26.506;2022-11-20T00:34:51;14.40;;;6.07;;
19509;SDS011;9896;42.486;26.506;2022-11-20T00:37:17;16.47;;;5.37;;
19509;SDS011;9896;42.486;26.506;2022-11-20T00:39:42;23.47;;;6.13;;
19509;SDS011;9896;42.486;26.506;2022-11-20T00:42:07;15.00;;;6.07;;
19509;SDS011;9896;42.486;26.506;2022-11-20T00:44:33;21.53;;;6.03;;
19509;SDS011;9896;42.486;26.506;2022-11-20T00:46:58;12.90;;;6.33;;
19509;SDS011;9896;42.486;26.506;2022-11-20T00:49:24;14.43;;;5.30;;
19509;SDS011;9896;42.486;26.506;2022-11-20T00:51:49;16.40;;;5.23;;
19509;SDS011;9896;42.486;26.506;2022-11-20T00:54:15;15.60;;;5.53;;
19509;SDS011;9896;42.486;26.506;2022-11-20T00:56:40;23.03;;;6.50;;
19509;SDS011;9896;42.486;26.506;2022-11-20T00:59:06;18.30;;;6.40;;
19509;SDS011;9896;42.486;26.506;2022-11-20T01:01:31;13.97;;;5.87;;
19509;SDS011;9896;42.486;26.506;2022-11-20T01:03:58;13.60;;;5.47;;
19509;SDS011;9896;42.486;26.506;2022-11-20T01:06:32;12.90;;;5.80;;
19509;SDS011;9896;42.486;26.506;2022-11-20T01:08:59;13.63;;;5.70;;
19509;SDS011;9896;42.486;26.506;2022-11-20T01:11:28;17.63;;;6.63;;
19509;SDS011;9896;42.486;26.506;2022-11-20T01:13:56;19.07;;;6.37;;
19509;SDS011;9896;42.486;26.506;2022-11-20T01:16:31;18.47;;;6.53;;
19509;SDS011;9896;42.486;26.506;2022-11-20T01:18:59;21.67;;;6.83;;
19509;SDS011;9896;42.486;26.506;2022-11-20T01:21:26;24.33;;;6.50;;
19509;SDS011;9896;42.486;26.506;2022-11-20T01:23:55;15.60;;;6.07;;
19509;SDS011;9896;42.486;26.506;2022-11-20T01:26:22;17.83;;;6.20;;
19509;SDS011;9896;42.486;26.506;2022-11-20T01:28:49;16.07;;;6.30;;
19509;SDS011;9896;42.486;26.506;2022-11-20T01:31:16;19.77;;;6.37;;
19509;SDS011;9896;42.486;26.506;2022-11-20T01:33:44;21.00;;;7.63;;
19509;SDS011;9896;42.486;26.506;2022-11-20T01:36:11;20.17;;;6.80;;
19509;SDS011;9896;42.486;26.506;2022-11-20T01:38:37;18.73;;;6.93;;
19509;SDS011;9896;42.486;26.506;2022-11-20T01:41:03;19.93;;;6.60;;
19509;SDS011;9896;42.486;26.506;2022-11-20T01:43:30;17.40;;;6.47;;
19509;SDS011;9896;42.486;26.506;2022-11-20T01:48:40;22.20;;;6.50;;
19509;SDS011;9896;42.486;26.506;2022-11-20T01:51:13;22.67;;;5.97;;
19509;SDS011;9896;42.486;26.506;2022-11-20T01:53:44;13.77;;;5.70;;
19509;SDS011;9896;42.486;26.506;2022-11-20T01:56:11;15.40;;;5.97;;
19509;SDS011;9896;42.486;26.506;2022-11-20T01:58:44;15.57;;;5.73;;
19509;SDS011;9896;42.486;26.506;2022-11-20T02:01:17;20.00;;;6.00;;
19509;SDS011;9896;42.486;26.506;2022-11-20T02:03:43;15.33;;;5.73;;
19509;SDS011;9896;42.486;26.506;2022-11-20T02:06:14;12.63;;;3.80;;
19509;SDS011;9896;42.486;26.506;2022-11-20T02:08:44;12.70;;;5.27;;
19509;SDS011;9896;42.486;26.506;2022-11-20T02:11:09;18.03;;;5.53;;
19509;SDS011;9896;42.486;26.506;2022-11-20T02:13:35;17.63;;;5.47;;
19509;SDS011;9896;42.486;26.506;2022-11-20T02:18:47;12.93;;;5.03;;
19509;SDS011;9896;42.486;26.506;2022-11-20T02:21:16;16.40;;;5.23;;
19509;SDS011;9896;42.486;26.506;2022-11-20T02:26:17;11.73;;;4.67;;
19509;SDS011;9896;42.486;26.506;2022-11-20T02:28:47;9.70;;;3.70;;
19509;SDS011;9896;42.486;26.506;2022-11-20T02:31:13;15.47;;;4.40;;
19509;SDS011;9896;42.486;26.506;2022-11-20T02:33:38;15.10;;;4.97;;
19509;SDS011;9896;42.486;26.506;2022-11-20T02:36:04;13.60;;;4.37;;
19509;SDS011;9896;42.486;26.506;2022-11-20T02:38:30;17.17;;;4.87;;
19509;SDS011;9896;42.486;26.506;2022-11-20T02:40:56;19.93;;;4.80;;
19509;SDS011;9896;42.486;26.506;2022-11-20T02:43:22;17.07;;;4.93;;
19509;SDS011;9896;42.486;26.506;2022-11-20T02:45:48;14.90;;;4.33;;
19509;SDS011;9896;42.486;26.506;2022-11-20T02:48:13;11.00;;;4.33;;
19509;SDS011;9896;42.486;26.506;2022-11-20T02:50:40;11.37;;;4.50;;
19509;SDS011;9896;42.486;26.506;2022-11-20T02:53:05;15.50;;;4.03;;
19509;SDS011;9896;42.486;26.506;2022-11-20T02:55:31;10.57;;;4.37;;
19509;SDS011;9896;42.486;26.506;2022-11-20T02:57:57;9.63;;;3.67;;
19509;SDS011;9896;42.486;26.506;2022-11-20T03:00:22;12.93;;;4.40;;
19509;SDS011;9896;42.486;26.506;2022-11-20T03:02:47;12.03;;;4.03;;
19509;SDS011;9896;42.486;26.506;2022-11-20T03:05:13;20.20;;;4.33;;
19509;SDS011;9896;42.486;26.506;2022-11-20T03:07:38;18.83;;;3.77;;
19509;SDS011;9896;42.486;26.506;2022-11-20T03:10:04;9.13;;;3.43;;
19509;SDS011;9896;42.486;26.506;2022-11-20T03:12:30;15.70;;;4.47;;
19509;SDS011;9896;42.486;26.506;2022-11-20T03:14:55;10.60;;;3.77;;
19509;SDS011;9896;42.486;26.506;2022-11-20T03:17:21;16.17;;;3.73;;
19509;SDS011;9896;42.486;26.506;2022-11-20T03:19:46;11.13;;;3.77;;
19509;SDS011;9896;42.486;26.506;2022-11-20T03:22:12;13.43;;;3.70;;
19509;SDS011;9896;42.486;26.506;2022-11-20T03:24:37;9.03;;;3.43;;
19509;SDS011;9896;42.486;26.506;2022-11-20T03:27:03;13.70;;;3.63;;
19509;SDS011;9896;42.486;26.506;2022-11-20T03:29:28;12.20;;;3.27;;
19509;SDS011;9896;42.486;26.506;2022-11-20T03:31:54;13.17;;;3.67;;
19509;SDS011;9896;42.486;26.506;2022-11-20T03:34:19;13.70;;;3.43;;
19509;SDS011;9896;42.486;26.506;2022-11-20T03:36:44;18.47;;;4.03;;
19509;SDS011;9896;42.486;26.506;2022-11-20T03:39:10;13.83;;;3.80;;
19509;SDS011;9896;42.486;26.506;2022-11-20T03:41:36;13.83;;;4.17;;
19509;SDS011;9896;42.486;26.506;2022-11-20T03:44:04;13.53;;;3.57;;
19509;SDS011;9896;42.486;26.506;2022-11-20T03:46:31;14.87;;;3.70;;
19509;SDS011;9896;42.486;26.506;2022-11-20T03:48:57;13.03;;;3.27;;
19509;SDS011;9896;42.486;26.506;2022-11-20T03:51:24;11.03;;;3.90;;
19509;SDS011;9896;42.486;26.506;2022-11-20T03:53:55;17.70;;;4.60;;
19509;SDS011;9896;42.486;26.506;2022-11-20T03:56:22;7.93;;;2.87;;
19509;SDS011;9896;42.486;26.506;2022-11-20T03:58:50;18.37;;;3.30;;
19509;SDS011;9896;42.486;26.506;2022-11-20T04:01:17;11.33;;;3.90;;
19509;SDS011;9896;42.486;26.506;2022-11-20T04:03:48;15.00;;;4.27;;
19509;SDS011;9896;42.486;26.506;2022-11-20T04:06:19;9.70;;;3.40;;
19509;SDS011;9896;42.486;26.506;2022-11-20T04:08:47;16.40;;;3.93;;
19509;SDS011;9896;42.486;26.506;2022-11-20T04:11:17;11.77;;;3.13;;
19509;SDS011;9896;42.486;26.506;2022-11-20T04:13:48;10.13;;;3.33;;
19509;SDS011;9896;42.486;26.506;2022-11-20T04:16:18;18.03;;;4.60;;
19509;SDS011;9896;42.486;26.506;2022-11-20T04:18:44;8.57;;;2.93;;
19509;SDS011;9896;42.486;26.506;2022-11-20T04:21:10;14.20;;;4.50;;
19509;SDS011;9896;42.486;26.506;2022-11-20T04:23:36;9.63;;;3.60;;
19509;SDS011;9896;42.486;26.506;2022-11-20T04:26:03;19.17;;;4.43;;
19509;SDS011;9896;42.486;26.506;2022-11-20T04:28:33;15.37;;;3.23;;
19509;SDS011;9896;42.486;26.506;2022-11-20T04:31:08;12.63;;;4.23;;
19509;SDS011;9896;42.486;26.506;2022-11-20T04:33:36;10.03;;;3.37;;
19509;SDS011;9896;42.486;26.506;2022-11-20T04:36:22;17.00;;;4.67;;
19509;SDS011;9896;42.486;26.506;2022-11-20T04:38:52;14.03;;;3.60;;
19509;SDS011;9896;42.486;26.506;2022-11-20T04:41:20;11.60;;;3.77;;
19509;SDS011;9896;42.486;26.506;2022-11-20T04:43:50;16.93;;;4.63;;
19509;SDS011;9896;42.486;26.506;2022-11-20T04:46:25;11.00;;;3.77;;
19509;SDS011;9896;42.486;26.506;2022-11-20T04:48:51;21.13;;;5.07;;
19509;SDS011;9896;42.486;26.506;2022-11-20T04:51:17;18.63;;;4.90;;
19509;SDS011;9896;42.486;26.506;2022-11-20T04:53:42;21.70;;;4.63;;
19509;SDS011;9896;42.486;26.506;2022-11-20T04:56:09;10.80;;;3.60;;
19509;SDS011;9896;42.486;26.506;2022-11-20T04:58:36;12.83;;;4.50;;
19509;SDS011;9896;42.486;26.506;2022-11-20T05:01:02;10.43;;;3.43;;
19509;SDS011;9896;42.486;26.506;2022-11-20T05:03:28;10.03;;;3.33;;
19509;SDS011;9896;42.486;26.506;2022-11-20T05:05:54;14.83;;;3.50;;
19509;SDS011;9896;42.486;26.506;2022-11-20T05:08:19;18.57;;;4.30;;
19509;SDS011;9896;42.486;26.506;2022-11-20T05:10:45;11.73;;;2.93;;
19509;SDS011;9896;42.486;26.506;2022-11-20T05:13:11;17.83;;;4.90;;
19509;SDS011;9896;42.486;26.506;2022-11-20T05:15:36;12.53;;;4.00;;
19509;SDS011;9896;42.486;26.506;2022-11-20T05:18:02;15.23;;;4.10;;
19509;SDS011;9896;42.486;26.506;2022-11-20T05:20:27;17.07;;;4.10;;
19509;SDS011;9896;42.486;26.506;2022-11-20T05:22:56;12.80;;;3.37;;
19509;SDS011;9896;42.486;26.506;2022-11-20T05:25:22;17.07;;;4.07;;
19509;SDS011;9896;42.486;26.506;2022-11-20T05:27:47;16.57;;;3.80;;
19509;SDS011;9896;42.486;26.506;2022-11-20T05:30:13;15.43;;;4.23;;
19509;SDS011;9896;42.486;26.506;2022-11-20T05:32:39;14.23;;;4.27;;
19509;SDS011;9896;42.486;26.506;2022-11-20T05:35:04;34.57;;;5.03;;
19509;SDS011;9896;42.486;26.506;2022-11-20T05:37:30;17.37;;;4.50;;
19509;SDS011;9896;42.486;26.506;2022-11-20T05:39:56;14.83;;;4.73;;
19509;SDS011;9896;42.486;26.506;2022-11-20T05:42:21;13.33;;;4.33;;
19509;SDS011;9896;42.486;26.506;2022-11-20T05:44:56;23.67;;;5.13;;
19509;SDS011;9896;42.486;26.506;2022-11-20T05:47:22;13.23;;;4.73;;
19509;SDS011;9896;42.486;26.506;2022-11-20T05:49:47;14.80;;;4.47;;
19509;SDS011;9896;42.486;26.506;2022-11-20T05:52:13;14.97;;;4.73;;
19509;SDS011;9896;42.486;26.506;2022-11-20T05:54:38;21.47;;;4.93;;
19509;SDS011;9896;42.486;26.506;2022-11-20T05:57:04;14.83;;;4.80;;
19509;SDS011;9896;42.486;26.506;2022-11-20T05:59:29;20.73;;;4.90;;
19509;SDS011;9896;42.486;26.506;2022-11-20T06:01:55;19.47;;;5.10;;
19509;SDS011;9896;42.486;26.506;2022-11-20T06:04:20;12.23;;;3.23;;
19509;SDS011;9896;42.486;26.506;2022-11-20T06:06:46;16.97;;;4.43;;
19509;SDS011;9896;42.486;26.506;2022-11-20T06:09:11;13.77;;;3.97;;
19509;SDS011;9896;42.486;26.506;2022-11-20T06:11:37;21.63;;;5.83;;
19509;SDS011;9896;42.486;26.506;2022-11-20T06:14:02;16.17;;;4.30;;
19509;SDS011;9896;42.486;26.506;2022-11-20T06:16:28;20.07;;;4.87;;
19509;SDS011;9896;42.486;26.506;2022-11-20T06:18:53;19.47;;;5.33;;
19509;SDS011;9896;42.486;26.506;2022-11-20T06:21:20;22.13;;;4.53;;
19509;SDS011;9896;42.486;26.506;2022-11-20T06:23:47;13.70;;;3.50;;
19509;SDS011;9896;42.486;26.506;2022-11-20T06:26:15;20.57;;;3.83;;
19509;SDS011;9896;42.486;26.506;2022-11-20T06:28:53;20.67;;;4.10;;
19509;SDS011;9896;42.486;26.506;2022-11-20T06:31:20;18.13;;;4.63;;
19509;SDS011;9896;42.486;26.506;2022-11-20T06:33:47;19.47;;;4.23;;
19509;SDS011;9896;42.486;26.506;2022-11-20T06:36:14;21.10;;;5.77;;
19509;SDS011;9896;42.486;26.506;2022-11-20T06:38:41;9.33;;;3.80;;
19509;SDS011;9896;42.486;26.506;2022-11-20T06:41:08;22.27;;;4.77;;
19509;SDS011;9896;42.486;26.506;2022-11-20T06:43:37;16.57;;;4.57;;
19509;SDS011;9896;42.486;26.506;2022-11-20T06:46:03;14.37;;;4.77;;
19509;SDS011;9896;42.486;26.506;2022-11-20T06:48:29;15.90;;;4.60;;
19509;SDS011;9896;42.486;26.506;2022-11-20T06:50:55;18.70;;;4.80;;
19509;SDS011;9896;42.486;26.506;2022-11-20T06:53:21;18.93;;;3.97;;
19509;SDS011;9896;42.486;26.506;2022-11-20T06:55:48;16.33;;;4.27;;
19509;SDS011;9896;42.486;26.506;2022-11-20T06:58:15;18.97;;;4.77;;
19509;SDS011;9896;42.486;26.506;2022-11-20T07:00:41;19.90;;;4.40;;
19509;SDS011;9896;42.486;26.506;2022-11-20T07:03:07;20.67;;;4.47;;
19509;SDS011;9896;42.486;26.506;2022-11-20T07:05:34;16.23;;;4.27;;
19509;SDS011;9896;42.486;26.506;2022-11-20T07:08:00;19.77;;;5.13;;
19509;SDS011;9896;42.486;26.506;2022-11-20T07:10:26;16.93;;;4.57;;
19509;SDS011;9896;42.486;26.506;2022-11-20T07:12:53;18.20;;;5.00;;
19509;SDS011;9896;42.486;26.506;2022-11-20T07:15:20;15.33;;;4.30;;
19509;SDS011;9896;42.486;26.506;2022-11-20T07:17:46;18.93;;;4.17;;
19509;SDS011;9896;42.486;26.506;2022-11-20T07:20:12;21.03;;;5.03;;
19509;SDS011;9896;42.486;26.506;2022-11-20T07:22:38;15.03;;;4.50;;
19509;SDS011;9896;42.486;26.506;2022-11-20T07:25:04;19.73;;;5.93;;
19509;SDS011;9896;42.486;26.506;2022-11-20T07:27:30;19.00;;;5.30;;
19509;SDS011;9896;42.486;26.506;2022-11-20T07:29:56;17.27;;;5.27;;
19509;SDS011;9896;42.486;26.506;2022-11-20T07:32:21;14.67;;;5.07;;
19509;SDS011;9896;42.486;26.506;2022-11-20T07:34:47;20.73;;;4.77;;
19509;SDS011;9896;42.486;26.506;2022-11-20T07:37:13;18.83;;;4.70;;
19509;SDS011;9896;42.486;26.506;2022-11-20T07:39:39;22.50;;;4.97;;
19509;SDS011;9896;42.486;26.506;2022-11-20T07:42:08;26.70;;;5.20;;
19509;SDS011;9896;42.486;26.506;2022-11-20T07:44:35;18.40;;;4.67;;
19509;SDS011;9896;42.486;26.506;2022-11-20T07:47:01;19.73;;;4.93;;
19509;SDS011;9896;42.486;26.506;2022-11-20T07:49:27;17.57;;;5.20;;
19509;SDS011;9896;42.486;26.506;2022-11-20T07:51:52;16.17;;;4.43;;
19509;SDS011;9896;42.486;26.506;2022-11-20T07:54:21;24.77;;;5.40;;
19509;SDS011;9896;42.486;26.506;2022-11-20T07:56:47;20.67;;;5.37;;
19509;SDS011;9896;42.486;26.506;2022-11-20T07:59:16;15.60;;;4.67;;
19509;SDS011;9896;42.486;26.506;2022-11-20T08:01:42;18.77;;;5.30;;
19509;SDS011;9896;42.486;26.506;2022-11-20T08:04:08;21.27;;;5.13;;
19509;SDS011;9896;42.486;26.506;2022-11-20T08:06:34;20.73;;;5.60;;
19509;SDS011;9896;42.486;26.506;2022-11-20T08:09:00;22.37;;;4.80;;
19509;SDS011;9896;42.486;26.506;2022-11-20T08:11:26;26.80;;;6.30;;
19509;SDS011;9896;42.486;26.506;2022-11-20T08:14:10;25.80;;;6.20;;
19509;SDS011;9896;42.486;26.506;2022-11-20T08:16:38;25.83;;;6.27;;
19509;SDS011;9896;42.486;26.506;2022-11-20T08:19:08;25.00;;;6.33;;
19509;SDS011;9896;42.486;26.506;2022-11-20T08:21:34;21.17;;;4.90;;
19509;SDS011;9896;42.486;26.506;2022-11-20T08:24:00;17.93;;;4.70;;
19509;SDS011;9896;42.486;26.506;2022-11-20T08:26:25;21.00;;;6.03;;
19509;SDS011;9896;42.486;26.506;2022-11-20T08:28:57;17.23;;;5.37;;
19509;SDS011;9896;42.486;26.506;2022-11-20T08:31:24;19.60;;;5.70;;
19509;SDS011;9896;42.486;26.506;2022-11-20T08:33:51;20.17;;;4.80;;
19509;SDS011;9896;42.486;26.506;2022-11-20T08:36:17;21.97;;;5.47;;
19509;SDS011;9896;42.486;26.506;2022-11-20T08:38:46;16.33;;;4.83;;
19509;SDS011;9896;42.486;26.506;2022-11-20T08:41:16;21.70;;;5.60;;
19509;SDS011;9896;42.486;26.506;2022-11-20T08:46:21;24.43;;;4.77;;
19509;SDS011;9896;42.486;26.506;2022-11-20T08:48:48;16.10;;;3.97;;
19509;SDS011;9896;42.486;26.506;2022-11-20T08:51:14;19.17;;;5.00;;
19509;SDS011;9896;42.486;26.506;2022-11-20T08:53:40;19.73;;;6.17;;
19509;SDS011;9896;42.486;26.506;2022-11-20T08:56:06;19.10;;;5.70;;
19509;SDS011;9896;42.486;26.506;2022-11-20T08:58:32;15.97;;;4.73;;
19509;SDS011;9896;42.486;26.506;2022-11-20T09:00:57;25.17;;;5.90;;
19509;SDS011;9896;42.486;26.506;2022-11-20T09:03:22;21.47;;;4.93;;
19509;SDS011;9896;42.486;26.506;2022-11-20T09:05:48;22.97;;;4.53;;
19509;SDS011;9896;42.486;26.506;2022-11-20T09:08:14;18.27;;;4.73;;
19509;SDS011;9896;42.486;26.506;2022-11-20T09:10:39;18.23;;;5.53;;
19509;SDS011;9896;42.486;26.506;2022-11-20T09:13:05;23.67;;;5.03;;
19509;SDS011;9896;42.486;26.506;2022-11-20T09:15:31;23.27;;;6.37;;
19509;SDS011;9896;42.486;26.506;2022-11-20T09:17:58;25.23;;;4.80;;
19509;SDS011;9896;42.486;26.506;2022-11-20T09:20:26;20.53;;;5.13;;
19509;SDS011;9896;42.486;26.506;2022-11-20T09:22:56;20.43;;;4.33;;
19509;SDS011;9896;42.486;26.506;2022-11-20T09:25:22;19.30;;;5.67;;
19509;SDS011;9896;42.486;26.506;2022-11-20T09:27:54;23.40;;;6.20;;
19509;SDS011;9896;42.486;26.506;2022-11-20T09:30:23;21.67;;;6.67;;
19509;SDS011;9896;42.486;26.506;2022-11-20T09:32:49;18.70;;;4.50;;
19509;SDS011;9896;42.486;26.506;2022-11-20T09:35:14;29.07;;;4.97;;
19509;SDS011;9896;42.486;26.506;2022-11-20T09:37:40;15.43;;;4.87;;
19509;SDS011;9896;42.486;26.506;2022-11-20T09:40:05;18.77;;;3.90;;
19509;SDS011;9896;42.486;26.506;2022-11-20T09:55:41;21.90;;;4.73;;
19509;SDS011;9896;42.486;26.506;2022-11-20T09:58:10;26.37;;;4.77;;
19509;SDS011;9896;42.486;26.506;2022-11-20T10:00:42;16.00;;;4.70;;
19509;SDS011;9896;42.486;26.506;2022-11-20T10:03:19;21.87;;;4.50;;
19509;SDS011;9896;42.486;26.506;2022-11-20T10:05:58;23.20;;;4.83;;
19509;SDS011;9896;42.486;26.506;2022-11-20T10:08:30;21.00;;;4.87;;
19509;SDS011;9896;42.486;26.506;2022-11-20T10:32:38;16.00;;;4.40;;
19509;SDS011;9896;42.486;26.506;2022-11-20T10:35:32;19.40;;;4.40;;
19509;SDS011;9896;42.486;26.506;2022-11-20T10:38:06;21.87;;;4.60;;
19509;SDS011;9896;42.486;26.506;2022-11-20T10:40:43;20.73;;;5.47;;
19509;SDS011;9896;42.486;26.506;2022-11-20T10:46:18;17.03;;;3.57;;
19509;SDS011;9896;42.486;26.506;2022-11-20T10:48:49;21.57;;;4.93;;
19509;SDS011;9896;42.486;26.506;2022-11-20T10:57:21;28.70;;;4.53;;
19509;SDS011;9896;42.486;26.506;2022-11-20T11:00:10;12.83;;;3.83;;
19509;SDS011;9896;42.486;26.506;2022-11-20T11:05:22;25.87;;;5.80;;
19509;SDS011;9896;42.486;26.506;2022-11-20T11:08:15;15.33;;;4.33;;
19509;SDS011;9896;42.486;26.506;2022-11-20T11:15:50;24.93;;;4.97;;
19509;SDS011;9896;42.486;26.506;2022-11-20T11:18:24;23.37;;;5.23;;
19509;SDS011;9896;42.486;26.506;2022-11-20T11:20:55;26.63;;;5.30;;
19509;SDS011;9896;42.486;26.506;2022-11-20T11:23:32;21.87;;;5.47;;
19509;SDS011;9896;42.486;26.506;2022-11-20T11:26:00;18.87;;;4.90;;
19509;SDS011;9896;42.486;26.506;2022-11-20T11:28:26;23.77;;;4.97;;
19509;SDS011;9896;42.486;26.506;2022-11-20T11:30:53;20.10;;;4.67;;
19509;SDS011;9896;42.486;26.506;2022-11-20T11:33:20;23.70;;;5.13;;
19509;SDS011;9896;42.486;26.506;2022-11-20T11:35:49;19.50;;;5.53;;
19509;SDS011;9896;42.486;26.506;2022-11-20T11:38:59;20.73;;;5.03;;
19509;SDS011;9896;42.486;26.506;2022-11-20T11:41:09;23.83;;;5.93;;
19509;SDS011;9896;42.486;26.506;2022-11-20T11:43:48;16.70;;;5.07;;
19509;SDS011;9896;42.486;26.506;2022-11-20T11:46:35;40.90;;;7.63;;
19509;SDS011;9896;42.486;26.506;2022-11-20T11:51:41;30.43;;;5.53;;
19509;SDS011;9896;42.486;26.506;2022-11-20T11:57:18;19.07;;;4.70;;
19509;SDS011;9896;42.486;26.506;2022-11-20T12:07:46;32.13;;;5.73;;
19509;SDS011;9896;42.486;26.506;2022-11-20T12:10:53;19.30;;;5.83;;
19509;SDS011;9896;42.486;26.506;2022-11-20T12:13:26;28.63;;;5.30;;
19509;SDS011;9896;42.486;26.506;2022-11-20T12:15:59;23.47;;;5.03;;
19509;SDS011;9896;42.486;26.506;2022-11-20T12:18:25;22.83;;;5.03;;
19509;SDS011;9896;42.486;26.506;2022-11-20T12:23:52;26.63;;;4.60;;
19509;SDS011;9896;42.486;26.506;2022-11-20T12:43:23;21.20;;;5.67;;
19509;SDS011;9896;42.486;26.506;2022-11-20T13:08:54;20.70;;;4.67;;
19509;SDS011;9896;42.486;26.506;2022-11-20T13:14:07;32.73;;;5.30;;
19509;SDS011;9896;42.486;26.506;2022-11-20T13:16:52;24.63;;;5.63;;
19509;SDS011;9896;42.486;26.506;2022-11-20T13:19:30;26.33;;;5.77;;
19509;SDS011;9896;42.486;26.506;2022-11-20T13:21:56;25.50;;;4.97;;
19509;SDS011;9896;42.486;26.506;2022-11-20T13:29:41;31.33;;;5.90;;
19509;SDS011;9896;42.486;26.506;2022-11-20T13:32:20;39.40;;;6.97;;
19509;SDS011;9896;42.486;26.506;2022-11-20T13:34:52;21.17;;;5.13;;
19509;SDS011;9896;42.486;26.506;2022-11-20T13:37:32;21.90;;;5.20;;
19509;SDS011;9896;42.486;26.506;2022-11-20T13:40:32;28.83;;;5.70;;
19509;SDS011;9896;42.486;26.506;2022-11-20T13:42:54;25.70;;;5.80;;
19509;SDS011;9896;42.486;26.506;2022-11-20T13:45:26;22.40;;;5.07;;
19509;SDS011;9896;42.486;26.506;2022-11-20T13:47:54;29.80;;;5.33;;
19509;SDS011;9896;42.486;26.506;2022-11-20T13:50:21;24.40;;;5.07;;
19509;SDS011;9896;42.486;26.506;2022-11-20T13:55:45;25.63;;;5.70;;
19509;SDS011;9896;42.486;26.506;2022-11-20T14:01:20;25.67;;;5.33;;
19509;SDS011;9896;42.486;26.506;2022-11-20T14:03:48;18.30;;;4.43;;
19509;SDS011;9896;42.486;26.506;2022-11-20T14:06:26;27.90;;;6.63;;
19509;SDS011;9896;42.486;26.506;2022-11-20T14:08:56;25.33;;;6.20;;
19509;SDS011;9896;42.486;26.506;2022-11-20T14:16:47;37.47;;;5.77;;
19509;SDS011;9896;42.486;26.506;2022-11-20T14:19:24;22.00;;;5.27;;
19509;SDS011;9896;42.486;26.506;2022-11-20T14:24:44;24.93;;;5.00;;
19509;SDS011;9896;42.486;26.506;2022-11-20T14:27:16;28.67;;;5.63;;
19509;SDS011;9896;42.486;26.506;2022-11-20T14:29:44;31.33;;;5.33;;
19509;SDS011;9896;42.486;26.506;2022-11-20T14:32:12;28.00;;;5.47;;
19509;SDS011;9896;42.486;26.506;2022-11-20T14:34:41;37.37;;;6.33;;
19509;SDS011;9896;42.486;26.506;2022-11-20T14:37:11;30.63;;;5.50;;
19509;SDS011;9896;42.486;26.506;2022-11-20T14:39:42;32.63;;;6.60;;
19509;SDS011;9896;42.486;26.506;2022-11-20T14:42:15;27.33;;;5.03;;
19509;SDS011;9896;42.486;26.506;2022-11-20T14:44:42;29.10;;;5.80;;
19509;SDS011;9896;42.486;26.506;2022-11-20T14:47:10;16.87;;;4.17;;
19509;SDS011;9896;42.486;26.506;2022-11-20T14:49:38;30.30;;;5.80;;
19509;SDS011;9896;42.486;26.506;2022-11-20T14:52:15;25.80;;;5.27;;
19509;SDS011;9896;42.486;26.506;2022-11-20T14:54:49;24.90;;;5.70;;
19509;SDS011;9896;42.486;26.506;2022-11-20T14:57:32;44.37;;;7.07;;
19509;SDS011;9896;42.486;26.506;2022-11-20T15:02:45;31.73;;;6.77;;
19509;SDS011;9896;42.486;26.506;2022-11-20T15:05:13;25.67;;;6.00;;
19509;SDS011;9896;42.486;26.506;2022-11-20T15:07:41;27.17;;;5.03;;
19509;SDS011;9896;42.486;26.506;2022-11-20T15:10:23;20.77;;;5.63;;
19509;SDS011;9896;42.486;26.506;2022-11-20T15:12:58;29.53;;;6.63;;
19509;SDS011;9896;42.486;26.506;2022-11-20T15:15:46;32.63;;;5.90;;
19509;SDS011;9896;42.486;26.506;2022-11-20T15:18:16;30.10;;;5.03;;
19509;SDS011;9896;42.486;26.506;2022-11-20T15:20:43;43.80;;;7.00;;
19509;SDS011;9896;42.486;26.506;2022-11-20T15:23:12;37.70;;;7.90;;
19509;SDS011;9896;42.486;26.506;2022-11-20T15:25:39;38.97;;;7.60;;
19509;SDS011;9896;42.486;26.506;2022-11-20T15:28:39;30.37;;;7.53;;
19509;SDS011;9896;42.486;26.506;2022-11-20T15:30:59;26.53;;;5.50;;
19509;SDS011;9896;42.486;26.506;2022-11-20T15:33:25;36.67;;;7.37;;
19509;SDS011;9896;42.486;26.506;2022-11-20T15:35:50;36.97;;;6.50;;
19509;SDS011;9896;42.486;26.506;2022-11-20T15:38:16;32.00;;;6.90;;
19509;SDS011;9896;42.486;26.506;2022-11-20T15:40:41;29.43;;;6.23;;
19509;SDS011;9896;42.486;26.506;2022-11-20T15:43:07;33.67;;;6.23;;
19509;SDS011;9896;42.486;26.506;2022-11-20T15:45:51;26.80;;;5.33;;
19509;SDS011;9896;42.486;26.506;2022-11-20T15:48:21;31.23;;;6.30;;
19509;SDS011;9896;42.486;26.506;2022-11-20T15:51:01;35.47;;;6.60;;
19509;SDS011;9896;42.486;26.506;2022-11-20T15:53:35;24.40;;;5.80;;
19509;SDS011;9896;42.486;26.506;2022-11-20T15:56:05;32.20;;;6.37;;
19509;SDS011;9896;42.486;26.506;2022-11-20T15:58:34;31.27;;;5.90;;
19509;SDS011;9896;42.486;26.506;2022-11-20T16:00:59;22.47;;;4.60;;
19509;SDS011;9896;42.486;26.506;2022-11-20T16:03:25;29.87;;;6.27;;
19509;SDS011;9896;42.486;26.506;2022-11-20T16:05:50;36.07;;;6.20;;
19509;SDS011;9896;42.486;26.506;2022-11-20T16:08:16;32.23;;;6.13;;
19509;SDS011;9896;42.486;26.506;2022-11-20T16:10:41;35.17;;;8.10;;
19509;SDS011;9896;42.486;26.506;2022-11-20T16:13:14;24.23;;;5.53;;
19509;SDS011;9896;42.486;26.506;2022-11-20T16:16:02;24.70;;;5.33;;
19509;SDS011;9896;42.486;26.506;2022-11-20T16:18:30;33.00;;;5.87;;
19509;SDS011;9896;42.486;26.506;2022-11-20T16:20:57;26.43;;;5.97;;
19509;SDS011;9896;42.486;26.506;2022-11-20T16:23:23;29.13;;;5.37;;
19509;SDS011;9896;42.486;26.506;2022-11-20T16:25:49;26.63;;;5.37;;
19509;SDS011;9896;42.486;26.506;2022-11-20T16:28:17;32.90;;;5.97;;
19509;SDS011;9896;42.486;26.506;2022-11-20T16:30:47;29.83;;;6.40;;
19509;SDS011;9896;42.486;26.506;2022-11-20T16:33:14;24.17;;;6.07;;
19509;SDS011;9896;42.486;26.506;2022-11-20T16:35:42;34.43;;;6.30;;
19509;SDS011;9896;42.486;26.506;2022-11-20T16:38:07;33.17;;;6.40;;
19509;SDS011;9896;42.486;26.506;2022-11-20T16:40:34;35.27;;;7.67;;
19509;SDS011;9896;42.486;26.506;2022-11-20T16:43:06;35.67;;;7.80;;
19509;SDS011;9896;42.486;26.506;2022-11-20T16:45:39;32.93;;;7.63;;
19509;SDS011;9896;42.486;26.506;2022-11-20T16:48:06;38.87;;;7.87;;
19509;SDS011;9896;42.486;26.506;2022-11-20T16:50:32;33.43;;;6.47;;
19509;SDS011;9896;42.486;26.506;2022-11-20T16:52:57;33.07;;;6.10;;
19509;SDS011;9896;42.486;26.506;2022-11-20T16:55:23;32.53;;;6.90;;
19509;SDS011;9896;42.486;26.506;2022-11-20T16:57:48;31.37;;;6.20;;
19509;SDS011;9896;42.486;26.506;2022-11-20T17:00:14;36.13;;;7.10;;
19509;SDS011;9896;42.486;26.506;2022-11-20T17:02:39;22.93;;;6.17;;
19509;SDS011;9896;42.486;26.506;2022-11-20T17:05:05;31.97;;;5.83;;
19509;SDS011;9896;42.486;26.506;2022-11-20T17:07:31;21.83;;;5.40;;